PWSweather.com
Personal Weather Stations
Station Observations
KNYSIDNE1
East Masonville, Masonville, NY 13804

East MasonvilleMasonville, NY 13804

Lat: 42.26, Lon: -75.31

Elevation: 1581

Station Type: Davis WMII

http://eastmasonvilleweather.com

Latest ConditionsUpdated 6:10:01 AM EST Sunday, Dec 15, 2019
Currently Today's Max Today's Min Today's Average
Temperature 33.4°F0.8°C 33.7°F0.9°C 33.2°F0.7°C 33.4°F0.8°C
Dew Point 31.6°F-0.2°C 32.3°F0.2°C 31.1°F-0.5°C 31.8°F-0.1°C
Winds 1.2 mph WNW1.9 kmh WNW 5.8 mph -9.3 kmh - - 2.4 mph 3.9 kmh
Wind Gusts 4.6 mph7.4 kmh 12.7 mph20.4 kmh - -
Humidity 93% 96% 92% 94%
Pressure 29.59 in1002.0 mb 29.59 in1002.0 mb 29.38 in994.9 mb -
Precipitation - 0.01 in0.3 mm - -
Hour Temp Dew Point Humidity Winds Wind Gusts Pressure Precip Precip Rate Daily Precip Total
06:10 AM 33.4°F0.8°C 31.6°F-0.2°C 93% 1.2 mph WNW1.9 kmh WNW 4.6 mph7.4 kmh 29.59 in1002.0 mb - 0.00 in0.0 mm 0.01 in0.3 mm
06:00 AM 33.4°F0.8°C 31.3°F-0.4°C 92% 2.3 mph NNW3.7 kmh NNW 3.5 mph5.6 kmh 29.59 in1002.0 mb - 0.00 in0.0 mm 0.01 in0.3 mm
05:50 AM 33.4°F0.8°C 31.3°F-0.4°C 92% Calm Calm 1.2 mph1.9 kmh 29.59 in1002.0 mb - 0.00 in0.0 mm 0.01 in0.3 mm
05:40 AM 33.3°F0.7°C 31.3°F-0.4°C 92% Calm Calm 3.5 mph5.6 kmh 29.58 in1001.7 mb - 0.00 in0.0 mm 0.01 in0.3 mm
05:30 AM 33.3°F0.7°C 31.2°F-0.4°C 92% Calm Calm -- 29.58 in1001.7 mb - 0.00 in0.0 mm 0.01 in0.3 mm
05:20 AM 33.3°F0.7°C 31.2°F-0.4°C 92% 2.3 mph WNW3.7 kmh WNW 3.5 mph5.6 kmh 29.57 in1001.4 mb - 0.00 in0.0 mm 0.01 in0.3 mm
05:10 AM 33.2°F0.7°C 31.1°F-0.5°C 92% 2.3 mph WSW3.7 kmh WSW 3.5 mph5.6 kmh 29.56 in1001.0 mb - 0.00 in0.0 mm 0.01 in0.3 mm
05:00 AM 33.2°F0.7°C 31.1°F-0.5°C 92% 2.3 mph WNW3.7 kmh WNW 2.3 mph3.7 kmh 29.56 in1001.0 mb - 0.00 in0.0 mm 0.01 in0.3 mm
04:50 AM 33.2°F0.7°C 31.2°F-0.4°C 92% 1.2 mph WNW1.9 kmh WNW 4.6 mph7.4 kmh 29.55 in1000.7 mb - 0.00 in0.0 mm 0.01 in0.3 mm
04:40 AM 33.3°F0.7°C 31.2°F-0.4°C 92% 2.3 mph W3.7 kmh W 4.6 mph7.4 kmh 29.55 in1000.7 mb - 0.00 in0.0 mm 0.01 in0.3 mm
04:30 AM 33.3°F0.7°C 31.2°F-0.4°C 92% Calm Calm 1.2 mph1.9 kmh 29.54 in1000.3 mb - 0.00 in0.0 mm 0.01 in0.3 mm
04:20 AM 33.3°F0.7°C 31.2°F-0.4°C 92% Calm Calm 1.2 mph1.9 kmh 29.53 in1000.0 mb - 0.00 in0.0 mm 0.01 in0.3 mm
04:10 AM 33.4°F0.8°C 31.6°F-0.2°C 93% 3.5 mph W5.6 kmh W 5.8 mph9.3 kmh 29.53 in1000.0 mb - 0.00 in0.0 mm 0.01 in0.3 mm
04:00 AM 33.4°F0.8°C 31.6°F-0.2°C 93% 1.2 mph WNW1.9 kmh WNW -- 29.52 in999.7 mb - 0.00 in0.0 mm 0.01 in0.3 mm
03:50 AM 33.5°F0.8°C 31.7°F-0.2°C 93% 2.3 mph W3.7 kmh W 3.5 mph5.6 kmh 29.52 in999.7 mb - 0.00 in0.0 mm 0.01 in0.3 mm
03:40 AM 33.6°F0.9°C 32.0°F0.0°C 94% 3.5 mph WNW5.6 kmh WNW 4.6 mph7.4 kmh 29.51 in999.3 mb - 0.00 in0.0 mm 0.01 in0.3 mm
03:30 AM 33.7°F0.9°C 32.2°F0.1°C 94% 2.3 mph WNW3.7 kmh WNW 2.3 mph3.7 kmh 29.51 in999.3 mb - 0.00 in0.0 mm 0.01 in0.3 mm
03:20 AM 33.7°F0.9°C 32.2°F0.1°C 94% 2.3 mph NNW3.7 kmh NNW 3.5 mph5.6 kmh 29.51 in999.3 mb - 0.00 in0.0 mm 0.01 in0.3 mm
03:10 AM 33.7°F0.9°C 32.1°F0.1°C 94% 3.5 mph WNW5.6 kmh WNW 8.1 mph13.0 kmh 29.50 in999.0 mb - 0.00 in0.0 mm 0.01 in0.3 mm
03:00 AM 33.6°F0.9°C 32.3°F0.2°C 95% 3.5 mph WNW5.6 kmh WNW 2.3 mph3.7 kmh 29.49 in998.6 mb - 0.00 in0.0 mm 0.01 in0.3 mm
02:50 AM 33.5°F0.8°C 32.2°F0.1°C 95% 5.8 mph W9.3 kmh W 12.7 mph20.4 kmh 29.48 in998.3 mb - 0.00 in0.0 mm 0.01 in0.3 mm
02:40 AM 33.5°F0.8°C 32.2°F0.1°C 95% 4.6 mph NW7.4 kmh NW 4.6 mph7.4 kmh 29.48 in998.3 mb - 0.00 in0.0 mm 0.01 in0.3 mm
02:30 AM 33.5°F0.8°C 32.2°F0.1°C 95% 3.5 mph W5.6 kmh W 5.8 mph9.3 kmh 29.47 in998.0 mb - 0.01 in0.3 mm 0.01 in0.3 mm
02:20 AM 33.5°F0.8°C 32.2°F0.1°C 95% 2.3 mph W3.7 kmh W 11.5 mph18.5 kmh 29.46 in997.6 mb - 0.01 in0.3 mm 0.01 in0.3 mm
02:10 AM 33.5°F0.8°C 32.2°F0.1°C 95% 1.2 mph NW1.9 kmh NW 2.3 mph3.7 kmh 29.45 in997.3 mb - 0.01 in0.3 mm 0.01 in0.3 mm
02:00 AM 33.5°F0.8°C 32.2°F0.1°C 95% 3.5 mph N5.6 kmh N 4.6 mph7.4 kmh 29.45 in997.3 mb - 0.01 in0.3 mm 0.01 in0.3 mm
01:50 AM 33.4°F0.8°C 32.1°F0.1°C 95% 3.5 mph WSW5.6 kmh WSW 3.5 mph5.6 kmh 29.45 in997.3 mb - 0.01 in0.3 mm 0.01 in0.3 mm
01:40 AM 33.3°F0.7°C 32.1°F0.1°C 95% 2.3 mph WNW3.7 kmh WNW 8.1 mph13.0 kmh 29.44 in997.0 mb - 0.01 in0.3 mm 0.01 in0.3 mm
01:30 AM 33.3°F0.7°C 32.0°F0.0°C 95% 1.2 mph NW1.9 kmh NW 4.6 mph7.4 kmh 29.43 in996.6 mb - 0.00 in0.0 mm 0.06 in1.5 mm
01:20 AM 33.3°F0.7°C 32.0°F0.0°C 95% 3.5 mph W5.6 kmh W 4.6 mph7.4 kmh 29.42 in996.3 mb - 0.00 in0.0 mm 0.06 in1.5 mm
01:10 AM 33.3°F0.7°C 32.3°F0.2°C 96% 3.5 mph WNW5.6 kmh WNW 3.5 mph5.6 kmh 29.42 in996.3 mb - 0.00 in0.0 mm 0.06 in1.5 mm
01:00 AM 33.2°F0.7°C 32.2°F0.1°C 96% 5.8 mph WNW9.3 kmh WNW 10.4 mph16.7 kmh 29.41 in995.9 mb - 0.00 in0.0 mm 0.06 in1.5 mm
12:50 AM 33.2°F0.7°C 32.2°F0.1°C 96% 2.3 mph NW3.7 kmh NW 4.6 mph7.4 kmh 29.40 in995.6 mb - 0.01 in0.3 mm 0.06 in1.5 mm
12:40 AM 33.2°F0.7°C 32.2°F0.1°C 96% 4.6 mph W7.4 kmh W 4.6 mph7.4 kmh 29.39 in995.3 mb - 0.01 in0.3 mm 0.05 in1.3 mm
12:30 AM 33.3°F0.7°C 32.3°F0.2°C 96% 3.5 mph W5.6 kmh W 5.8 mph9.3 kmh 29.39 in995.3 mb - 0.01 in0.3 mm 0.04 in1.0 mm
12:20 AM 33.3°F0.7°C 32.3°F0.2°C 96% 2.3 mph NW3.7 kmh NW 2.3 mph3.7 kmh 29.39 in995.3 mb - 0.01 in0.3 mm 0.03 in0.8 mm
12:10 AM 33.3°F0.7°C 32.3°F0.2°C 96% 1.2 mph NNW1.9 kmh NNW 4.6 mph7.4 kmh 29.38 in994.9 mb - 0.01 in0.3 mm 0.02 in0.5 mm
12:00 AM 33.2°F0.7°C 32.2°F0.1°C 96% 1.2 mph W1.9 kmh W 2.3 mph3.7 kmh 29.38 in994.9 mb - 0.01 in0.3 mm 0.01 in0.3 mm